Time;durP1;ratioP1;P1;durP2;ratioP2;P2;SDS_P1;SDS_P2;PMS_P1;PMS_P2;Temp;Humidity;BMP_temperature;BMP_pressure;BME280_temperature;BME280_humidity;BME280_pressure;Samples;Min_cycle;Max_cycle;Signal;HPM_P1;HPM_P2
2023/06/28 00:02:13;;;;;;;3.58;3.25;;;26.40;96.70;;;;;;5028529;28;20580;-70
2023/06/28 00:04:43;;;;;;;4.82;3.15;;;26.40;96.70;;;;;;5050229;28;20047;-71
2023/06/28 00:07:11;;;;;;;4.05;3.40;;;26.50;96.70;;;;;;5058355;28;20147;-71
2023/06/28 00:09:40;;;;;;;6.80;3.67;;;26.40;96.70;;;;;;5063774;28;20037;-71
2023/06/28 00:15:56;;;;;;;4.40;3.58;;;26.30;96.70;;;;;;5054355;28;20040;-71
2023/06/28 00:18:26;;;;;;;4.25;3.83;;;26.30;96.70;;;;;;5048600;28;20045;-71
2023/06/28 00:20:55;;;;;;;6.57;4.15;;;26.50;96.70;;;;;;5063575;28;20075;-71
2023/06/28 00:23:23;;;;;;;4.90;3.70;;;26.60;96.70;;;;;;5049845;28;20854;-71
2023/06/28 00:25:51;;;;;;;5.50;4.22;;;26.60;96.70;;;;;;5027802;28;20072;-71
2023/06/28 00:28:19;;;;;;;6.95;4.07;;;26.60;96.70;;;;;;5044010;28;20504;-71
2023/06/28 00:30:47;;;;;;;4.65;3.40;;;26.60;96.70;;;;;;5045295;28;20061;-70
2023/06/28 00:33:20;;;;;;;4.25;3.80;;;26.50;96.70;;;;;;5064535;28;20114;-71
2023/06/28 01:22:11;;;;;;;8.02;5.00;;;25.60;96.70;;;;;;5060933;28;20097;-70
2023/06/28 01:24:41;;;;;;;7.82;4.57;;;25.50;96.70;;;;;;5012734;28;20148;-70
2023/06/28 01:27:11;;;;;;;5.95;4.18;;;25.50;96.70;;;;;;5051107;28;20040;-70
2023/06/28 01:29:40;;;;;;;5.10;4.32;;;25.50;96.70;;;;;;5036826;28;20402;-71
2023/06/28 01:32:09;;;;;;;6.03;4.60;;;25.50;96.70;;;;;;5047866;28;20045;-71
2023/06/28 01:38:45;;;;;;;5.90;4.50;;;25.40;96.70;;;;;;5045784;28;20223;-71
2023/06/28 01:41:16;;;;;;;5.47;3.97;;;25.50;96.70;;;;;;5049759;28;20091;-71
2023/06/28 01:43:44;;;;;;;5.38;4.75;;;25.50;96.70;;;;;;5061576;28;20406;-71
2023/06/28 01:46:13;;;;;;;9.02;5.18;;;25.40;96.70;;;;;;5043686;28;20041;-71
2023/06/28 01:48:42;;;;;;;7.57;5.00;;;25.40;96.70;;;;;;5026060;28;20041;-70
2023/06/28 01:51:11;;;;;;;7.22;5.57;;;25.40;96.70;;;;;;5025814;28;20051;-70
2023/06/28 01:53:42;;;;;;;6.93;4.85;;;25.40;96.70;;;;;;5025595;28;20094;-72
2023/06/28 01:56:10;;;;;;;7.35;4.78;;;25.30;96.70;;;;;;5032213;28;20628;-71
2023/06/28 01:58:40;;;;;;;9.45;5.40;;;25.30;96.70;;;;;;5036214;28;20517;-71
2023/06/28 02:01:09;;;;;;;7.97;5.55;;;25.20;96.70;;;;;;5033589;28;20083;-71
2023/06/28 02:03:37;;;;;;;10.32;5.40;;;25.20;96.70;;;;;;5059874;28;20040;-71
2023/06/28 02:06:08;;;;;;;5.32;4.72;;;25.30;96.70;;;;;;5007365;28;20487;-71
2023/06/28 02:08:36;;;;;;;6.50;4.82;;;25.30;96.70;;;;;;5050278;28;20126;-71
2023/06/28 02:11:05;;;;;;;6.50;4.65;;;25.30;96.70;;;;;;5015537;28;20059;-71
2023/06/28 02:13:33;;;;;;;6.43;5.15;;;25.40;96.70;;;;;;5034909;28;20127;-71
2023/06/28 02:16:03;;;;;;;5.40;4.30;;;25.20;96.70;;;;;;5039043;28;20040;-71
2023/06/28 02:18:34;;;;;;;5.18;4.55;;;25.30;96.70;;;;;;5044388;28;20410;-71
2023/06/28 02:21:03;;;;;;;5.55;4.72;;;25.10;96.70;;;;;;5049324;28;20033;-71
2023/06/28 02:23:31;;;;;;;5.75;4.22;;;25.10;96.70;;;;;;5058802;28;20041;-70
2023/06/28 02:26:00;;;;;;;5.07;4.55;;;25.00;96.70;;;;;;5039727;28;20051;-71
2023/06/28 02:28:28;;;;;;;5.25;4.60;;;25.20;96.70;;;;;;5041420;28;20516;-71
2023/06/28 02:30:57;;;;;;;6.88;5.18;;;25.30;96.70;;;;;;5053204;28;20163;-71
2023/06/28 02:33:27;;;;;;;5.07;4.30;;;25.30;96.70;;;;;;5046497;28;20051;-71
2023/06/28 02:35:55;;;;;;;5.68;4.28;;;25.30;96.70;;;;;;5025714;28;20060;-71
2023/06/28 02:38:23;;;;;;;5.53;4.82;;;25.20;96.70;;;;;;5043413;28;20655;-71
2023/06/28 02:40:52;;;;;;;6.82;4.40;;;25.20;96.70;;;;;;5043204;28;20051;-71
2023/06/28 03:18:04;;;;;;;8.95;5.28;;;24.80;96.70;;;;;;5042943;28;20047;-71
2023/06/28 03:20:33;;;;;;;7.97;5.60;;;24.70;96.70;;;;;;5051038;28;20090;-71
2023/06/28 03:23:03;;;;;;;8.73;5.57;;;24.70;96.70;;;;;;5040875;28;20148;-71
2023/06/28 03:25:31;;;;;;;6.93;5.18;;;24.60;96.70;;;;;;5024465;28;20088;-72
2023/06/28 04:09:55;;;;;;;6.10;5.32;;;24.80;96.70;;;;;;5040880;28;20472;-71
2023/06/28 04:12:23;;;;;;;8.32;6.00;;;24.60;96.70;;;;;;5044816;28;20402;-71
2023/06/28 04:14:52;;;;;;;5.28;4.68;;;24.70;96.70;;;;;;5028293;28;20041;-71
2023/06/28 04:17:20;;;;;;;6.07;4.97;;;24.70;96.70;;;;;;5046775;28;20576;-71
2023/06/28 04:19:48;;;;;;;7.57;5.25;;;24.80;96.70;;;;;;5029532;28;20132;-71
2023/06/28 04:22:16;;;;;;;9.23;6.07;;;24.60;96.70;;;;;;5027889;28;20049;-71
2023/06/28 04:41:31;;;;;;;8.50;5.32;;;24.40;96.70;;;;;;5038548;28;20047;-71
2023/06/28 04:43:59;;;;;;;7.25;5.05;;;24.50;96.70;;;;;;5026729;28;20052;-71
2023/06/28 04:46:27;;;;;;;5.95;4.65;;;24.60;96.70;;;;;;5044887;28;20045;-71
2023/06/28 04:48:56;;;;;;;6.25;5.63;;;24.50;96.70;;;;;;5010360;28;20383;-70
2023/06/28 04:51:25;;;;;;;5.72;5.13;;;24.50;96.70;;;;;;5052717;28;20036;-70
2023/06/28 04:54:18;;;;;;;8.43;5.07;;;24.40;96.70;;;;;;5044481;28;20041;-71
2023/06/28 04:56:47;;;;;;;9.10;5.05;;;24.40;96.70;;;;;;5054241;28;20037;-71
2023/06/28 04:59:15;;;;;;;6.22;5.63;;;24.40;96.70;;;;;;5036114;28;20494;-71
2023/06/28 05:05:26;;;;;;;12.13;8.82;;;24.50;96.70;;;;;;5052135;28;20127;-71
2023/06/28 05:07:55;;;;;;;13.23;9.15;;;24.40;96.70;;;;;;5010755;28;20470;-71
2023/06/28 05:10:24;;;;;;;11.20;8.90;;;24.50;96.70;;;;;;5054900;28;20621;-71
2023/06/28 05:16:36;;;;;;;12.93;8.63;;;24.50;96.70;;;;;;5038460;28;20048;-70
2023/06/28 05:19:04;;;;;;;11.63;8.68;;;24.50;96.70;;;;;;5026351;28;20045;-71
2023/06/28 05:21:32;;;;;;;13.77;9.57;;;24.60;96.70;;;;;;5049384;28;20125;-71
2023/06/28 05:28:10;;;;;;;10.77;8.73;;;24.90;96.70;;;;;;5037147;28;20071;-70
2023/06/28 05:30:39;;;;;;;16.65;10.10;;;24.90;96.70;;;;;;5043394;28;20048;-71
2023/06/28 05:33:09;;;;;;;15.95;9.30;;;24.90;96.70;;;;;;5052151;28;20037;-71
2023/06/28 05:35:38;;;;;;;14.95;9.55;;;24.90;96.70;;;;;;5033768;28;20040;-71
2023/06/28 05:38:06;;;;;;;14.73;8.43;;;24.90;96.70;;;;;;5048667;28;20581;-74
2023/06/28 05:40:35;;;;;;;12.38;8.85;;;25.00;96.70;;;;;;5011875;28;20390;-73
2023/06/28 05:43:03;;;;;;;12.35;8.90;;;25.00;96.70;;;;;;5047652;28;20056;-74
2023/06/28 05:45:31;;;;;;;12.05;8.68;;;25.20;96.70;;;;;;5052387;28;20218;-73
2023/06/28 05:47:59;;;;;;;14.77;8.90;;;25.20;96.70;;;;;;5054530;28;20049;-73
2023/06/28 05:50:29;;;;;;;12.13;8.20;;;25.10;96.70;;;;;;5039489;28;20773;-71
2023/06/28 05:52:57;;;;;;;13.25;8.55;;;25.10;96.70;;;;;;5052277;28;20168;-71
2023/06/28 05:55:25;;;;;;;11.90;8.30;;;25.20;96.70;;;;;;5045568;28;20044;-71
2023/06/28 05:57:53;;;;;;;10.30;7.53;;;25.30;96.70;;;;;;5041627;28;20398;-71
2023/06/28 06:00:22;;;;;;;11.00;6.97;;;25.30;96.70;;;;;;5016426;28;20107;-70
2023/06/28 06:02:50;;;;;;;12.77;7.00;;;25.40;96.70;;;;;;5043857;28;20597;-70
2023/06/28 06:05:18;;;;;;;8.60;6.75;;;25.40;96.70;;;;;;5044934;28;20406;-70
2023/06/28 06:07:48;;;;;;;8.27;6.55;;;25.40;96.70;;;;;;5045541;28;20036;-70
2023/06/28 06:10:16;;;;;;;8.93;6.40;;;25.50;96.70;;;;;;5025217;28;20048;-72
2023/06/28 06:12:44;;;;;;;11.70;6.35;;;25.60;96.70;;;;;;5028499;28;20055;-70
2023/06/28 06:15:12;;;;;;;8.55;6.13;;;25.70;96.70;;;;;;5043574;28;20079;-70
2023/06/28 06:17:40;;;;;;;8.90;6.53;;;25.80;96.70;;;;;;5024908;28;20086;-70
2023/06/28 06:20:09;;;;;;;10.73;6.57;;;25.70;96.70;;;;;;5025247;28;20053;-71
2023/06/28 06:22:37;;;;;;;12.25;5.95;;;25.80;96.70;;;;;;5025761;28;20863;-70
2023/06/28 06:25:08;;;;;;;10.38;7.03;;;25.90;96.70;;;;;;5044645;28;20663;-71
2023/06/28 06:27:36;;;;;;;10.02;6.70;;;25.90;96.70;;;;;;5050366;28;20498;-70
2023/06/28 06:30:07;;;;;;;7.55;5.85;;;25.90;96.70;;;;;;5043096;28;20056;-70
2023/06/28 06:32:34;;;;;;;9.23;6.30;;;25.90;96.70;;;;;;5042680;28;20072;-70
2023/06/28 06:35:03;;;;;;;13.82;5.93;;;26.10;96.70;;;;;;5045928;28;20090;-70
2023/06/28 06:37:32;;;;;;;9.57;6.25;;;26.10;96.70;;;;;;5060620;28;20055;-70
2023/06/28 06:40:01;;;;;;;10.57;5.47;;;26.20;96.70;;;;;;5040009;28;20136;-70
2023/06/28 06:42:30;;;;;;;9.13;5.35;;;26.20;96.70;;;;;;5043358;28;20624;-70
2023/06/28 06:44:58;;;;;;;10.57;6.25;;;26.20;96.70;;;;;;5045808;28;20072;-70
2023/06/28 06:47:25;;;;;;;9.13;6.00;;;26.30;96.70;;;;;;5042205;28;20128;-70
2023/06/28 06:49:53;;;;;;;9.73;5.70;;;26.30;96.70;;;;;;5036026;28;20494;-70
2023/06/28 06:52:21;;;;;;;7.32;5.70;;;26.50;96.70;;;;;;5025239;28;20150;-70
2023/06/28 06:54:49;;;;;;;6.13;5.53;;;26.50;96.70;;;;;;5025648;28;20482;-70
2023/06/28 06:57:17;;;;;;;7.18;5.82;;;26.50;96.70;;;;;;5028492;28;20045;-70
2023/06/28 06:59:46;;;;;;;5.88;5.25;;;26.60;96.70;;;;;;5051045;28;20383;-70
2023/06/28 07:02:14;;;;;;;8.25;5.55;;;26.60;96.70;;;;;;5051995;28;20593;-69
2023/06/28 07:04:42;;;;;;;6.00;4.97;;;26.70;96.70;;;;;;5010711;28;20087;-70
2023/06/28 07:07:10;;;;;;;9.35;5.57;;;26.80;96.70;;;;;;5027848;28;20091;-70
2023/06/28 07:09:38;;;;;;;6.05;4.95;;;26.80;96.70;;;;;;5052395;28;20561;-70
2023/06/28 07:12:07;;;;;;;9.07;5.43;;;26.80;96.70;;;;;;5060762;28;20550;-70
2023/06/28 07:14:35;;;;;;;7.50;5.43;;;26.90;96.70;;;;;;5059171;28;20162;-70
2023/06/28 07:17:05;;;;;;;6.95;5.20;;;26.90;96.70;;;;;;5035951;28;20041;-70
2023/06/28 07:19:33;;;;;;;6.60;5.13;;;27.00;96.70;;;;;;5024006;28;20047;-70
2023/06/28 07:22:01;;;;;;;8.25;4.55;;;27.10;96.70;;;;;;5037599;28;20040;-70
2023/06/28 07:24:29;;;;;;;6.15;4.97;;;27.20;96.70;;;;;;5024189;28;20049;-70
2023/06/28 07:26:57;;;;;;;9.57;5.50;;;27.20;96.70;;;;;;5049941;28;20083;-70
2023/06/28 07:29:25;;;;;;;8.75;5.20;;;27.20;96.70;;;;;;5038313;28;20131;-70
2023/06/28 07:31:53;;;;;;;7.63;5.43;;;27.30;96.70;;;;;;5057695;28;20052;-70
2023/06/28 07:34:23;;;;;;;7.97;5.38;;;27.30;96.70;;;;;;5052055;28;20052;-71
2023/06/28 07:36:50;;;;;;;9.52;5.00;;;27.40;96.70;;;;;;5055289;28;20044;-72
2023/06/28 07:39:18;;;;;;;7.88;5.15;;;27.40;96.70;;;;;;5058271;28;20051;-71
2023/06/28 07:41:46;;;;;;;6.05;4.90;;;27.40;96.70;;;;;;5059913;28;20041;-71
2023/06/28 07:44:14;;;;;;;6.47;5.10;;;27.50;96.70;;;;;;5023357;28;20041;-71
2023/06/28 07:46:42;;;;;;;10.40;5.10;;;27.60;96.70;;;;;;5050931;28;20608;-70
2023/06/28 07:49:10;;;;;;;6.10;4.40;;;27.60;96.70;;;;;;5047481;28;20039;-70
2023/06/28 07:51:39;;;;;;;10.00;5.60;;;27.60;96.70;;;;;;5050789;28;20091;-70
2023/06/28 07:54:08;;;;;;;6.57;5.50;;;27.60;96.70;;;;;;5033003;28;20057;-72
2023/06/28 07:56:51;;;;;;;8.88;5.05;;;27.70;96.70;;;;;;5042824;28;20957;-72
2023/06/28 07:59:20;;;;;;;6.00;5.38;;;27.70;96.70;;;;;;5027463;28;20040;-73
2023/06/28 08:01:49;;;;;;;7.80;5.00;;;27.80;96.70;;;;;;5024905;28;20053;-72
2023/06/28 08:04:17;;;;;;;5.55;5.00;;;27.80;96.70;;;;;;5046100;28;20649;-71
2023/06/28 08:06:47;;;;;;;5.97;5.05;;;27.90;96.70;;;;;;5048763;28;20505;-70
2023/06/28 08:09:15;;;;;;;7.40;5.45;;;27.90;96.70;;;;;;5025989;28;20566;-70
2023/06/28 08:11:43;;;;;;;7.35;5.55;;;27.90;96.70;;;;;;5020979;28;20049;-70
2023/06/28 08:14:10;;;;;;;9.63;5.43;;;28.00;96.70;;;;;;5017051;28;21096;-70
2023/06/28 08:16:38;;;;;;;7.85;5.43;;;28.00;96.70;;;;;;5020975;28;20049;-70
2023/06/28 08:19:06;;;;;;;7.30;5.68;;;28.00;96.70;;;;;;5016683;28;20061;-70
2023/06/28 08:21:36;;;;;;;9.68;5.30;;;28.10;96.70;;;;;;5017534;28;20134;-70
2023/06/28 08:24:06;;;;;;;8.75;5.15;;;28.00;96.70;;;;;;5021361;28;20042;-70
2023/06/28 08:26:36;;;;;;;7.88;5.47;;;28.00;96.70;;;;;;5015427;28;20049;-71
2023/06/28 08:29:04;;;;;;;6.85;5.88;;;28.00;96.70;;;;;;5021790;28;20037;-70
2023/06/28 08:31:32;;;;;;;10.45;5.45;;;28.00;96.70;;;;;;5024564;28;20150;-70
2023/06/28 08:34:00;;;;;;;9.82;5.55;;;28.00;96.70;;;;;;5015347;28;20111;-70
2023/06/28 08:36:29;;;;;;;12.02;5.45;;;28.00;96.70;;;;;;5025333;28;20042;-71
2023/06/28 08:38:57;;;;;;;6.35;5.65;;;28.20;96.70;;;;;;5023820;28;20069;-70
2023/06/28 08:41:27;;;;;;;6.38;5.55;;;28.30;96.70;;;;;;5021071;28;20080;-70
2023/06/28 08:43:59;;;;;;;7.75;5.68;;;28.40;96.70;;;;;;5020702;28;20069;-70
2023/06/28 08:46:29;;;;;;;9.80;5.40;;;28.40;96.70;;;;;;5023920;28;20585;-70
2023/06/28 08:49:00;;;;;;;8.10;5.85;;;28.50;96.70;;;;;;5027816;28;20052;-70
2023/06/28 08:51:29;;;;;;;6.95;5.15;;;28.40;96.70;;;;;;5023290;28;20497;-70
2023/06/28 08:53:58;;;;;;;7.65;5.63;;;28.40;96.70;;;;;;5024665;28;20065;-70
2023/06/28 08:56:27;;;;;;;7.65;5.50;;;28.40;96.70;;;;;;5020996;28;20037;-70
2023/06/28 08:58:56;;;;;;;6.90;5.55;;;28.50;96.70;;;;;;5022393;28;20056;-70
2023/06/28 09:01:25;;;;;;;7.75;5.10;;;28.60;96.70;;;;;;5024827;28;20468;-70
2023/06/28 09:03:56;;;;;;;6.47;5.32;;;28.70;96.70;;;;;;5024524;28;20052;-70
2023/06/28 09:06:24;;;;;;;8.88;5.22;;;28.80;96.70;;;;;;5024877;28;20049;-70
2023/06/28 09:08:52;;;;;;;6.50;5.47;;;28.80;96.70;;;;;;5043220;28;20052;-70
2023/06/28 09:11:20;;;;;;;9.23;5.63;;;28.70;96.70;;;;;;5036269;28;20045;-71
2023/06/28 09:13:50;;;;;;;7.90;5.25;;;28.70;96.70;;;;;;5043825;28;20098;-70
2023/06/28 09:16:18;;;;;;;7.25;5.18;;;28.80;96.70;;;;;;5044813;28;20056;-70
2023/06/28 09:18:46;;;;;;;7.05;5.47;;;28.80;96.70;;;;;;5044455;28;20069;-70
2023/06/28 09:21:25;;;;;;;6.22;5.15;;;28.90;96.70;;;;;;5044474;28;20061;-70
2023/06/28 09:23:53;;;;;;;9.95;5.65;;;29.10;96.70;;;;;;5043651;28;20533;-70
2023/06/28 09:26:28;;;;;;;8.45;5.40;;;29.10;96.70;;;;;;5043854;28;20068;-70
2023/06/28 09:29:05;;;;;;;7.70;5.22;;;29.20;96.70;;;;;;5043969;28;20045;-71
2023/06/28 09:31:39;;;;;;;8.07;5.07;;;29.30;96.70;;;;;;5030609;28;20340;-71
2023/06/28 09:34:08;;;;;;;5.95;5.00;;;29.40;96.70;;;;;;5044563;28;20052;-70
2023/06/28 09:36:37;;;;;;;6.88;5.80;;;29.40;96.70;;;;;;5016884;28;20041;-71
2023/06/28 09:39:07;;;;;;;5.80;5.13;;;29.40;96.70;;;;;;5043801;28;20069;-71
2023/06/28 09:41:39;;;;;;;8.10;5.38;;;29.40;96.70;;;;;;5044050;28;20127;-70
2023/06/28 09:44:10;;;;;;;8.32;5.70;;;29.50;96.70;;;;;;5043514;28;20041;-70
2023/06/28 09:46:44;;;;;;;6.65;5.20;;;29.50;96.70;;;;;;5042171;28;20844;-70
2023/06/28 09:49:20;;;;;;;6.78;5.00;;;29.50;96.70;;;;;;5047405;28;20144;-71
2023/06/28 09:51:59;;;;;;;7.37;5.73;;;29.60;96.70;;;;;;5045855;28;20415;-70
2023/06/28 09:54:31;;;;;;;6.88;5.35;;;29.60;96.70;;;;;;5025274;28;20449;-71
2023/06/28 09:57:00;;;;;;;5.93;5.28;;;29.70;96.70;;;;;;5028049;28;20045;-70
2023/06/28 09:59:33;;;;;;;8.18;5.55;;;29.70;96.70;;;;;;5049370;28;20116;-71
2023/06/28 10:02:06;;;;;;;6.43;5.53;;;29.80;96.70;;;;;;5044420;28;20402;-71
2023/06/28 10:04:54;;;;;;;7.28;6.03;;;29.90;96.70;;;;;;5043348;28;20052;-71
2023/06/28 10:07:24;;;;;;;8.57;5.82;;;29.90;96.70;;;;;;5041399;28;20075;-71
2023/06/28 10:09:53;;;;;;;7.82;5.43;;;29.90;96.70;;;;;;5056334;28;20064;-71
2023/06/28 10:12:25;;;;;;;9.02;6.35;;;29.90;96.70;;;;;;5052410;28;20044;-71
2023/06/28 10:15:01;;;;;;;7.40;4.97;;;29.90;96.70;;;;;;5058903;28;20057;-71
2023/06/28 10:17:32;;;;;;;8.50;4.90;;;29.90;96.70;;;;;;5046507;28;20052;-71
2023/06/28 10:20:00;;;;;;;8.68;5.72;;;30.20;96.70;;;;;;5049644;28;20102;-71
2023/06/28 10:22:30;;;;;;;7.90;5.22;;;30.30;96.70;;;;;;5055651;28;20127;-71
2023/06/28 10:24:59;;;;;;;9.05;5.57;;;30.40;96.70;;;;;;5024611;28;20056;-71
2023/06/28 10:27:27;;;;;;;7.03;5.30;;;30.60;96.70;;;;;;5043064;28;20041;-71
2023/06/28 10:29:57;;;;;;;5.80;5.10;;;30.50;96.70;;;;;;5036535;28;20094;-71
2023/06/28 10:32:25;;;;;;;7.88;6.00;;;30.70;96.70;;;;;;5029560;28;20392;-70
2023/06/28 10:34:55;;;;;;;7.50;5.35;;;30.90;96.70;;;;;;5061159;28;20044;-71
2023/06/28 10:37:24;;;;;;;8.15;5.13;;;31.10;96.70;;;;;;5035183;28;20498;-71
2023/06/28 10:39:53;;;;;;;8.52;5.70;;;31.20;96.70;;;;;;5059146;28;20754;-71
2023/06/28 10:42:21;;;;;;;6.60;5.90;;;31.40;96.70;;;;;;5042912;28;20590;-71
2023/06/28 10:44:53;;;;;;;7.97;5.30;;;31.60;96.70;;;;;;5041804;28;20048;-70
2023/06/28 10:51:07;;;;;;;6.82;5.20;;;31.60;96.70;;;;;;5024524;28;20085;-70
2023/06/28 10:53:35;;;;;;;5.72;4.88;;;31.60;96.70;;;;;;5021728;28;20053;-72
2023/06/28 10:56:09;;;;;;;5.50;4.40;;;31.90;96.70;;;;;;5007688;28;20037;-71
2023/06/28 10:58:38;;;;;;;7.70;5.32;;;32.10;96.70;;;;;;5013388;28;20294;-71
2023/06/28 11:01:07;;;;;;;6.03;5.22;;;32.30;96.70;;;;;;5007508;28;20403;-71
2023/06/28 11:03:41;;;;;;;6.95;4.95;;;32.50;96.70;;;;;;5013123;28;20042;-71
2023/06/28 11:06:12;;;;;;;6.07;5.53;;;32.40;96.70;;;;;;5018803;28;20041;-71
2023/06/28 11:08:41;;;;;;;7.68;5.50;;;32.20;96.70;;;;;;4999558;28;20208;-72
2023/06/28 11:11:10;;;;;;;8.77;5.72;;;32.20;96.70;;;;;;5022071;28;20486;-71
2023/06/28 11:13:48;;;;;;;6.38;5.28;;;32.40;96.70;;;;;;5022856;28;20107;-71
2023/06/28 11:16:19;;;;;;;5.97;5.40;;;32.50;96.70;;;;;;4996321;28;20053;-71
2023/06/28 11:18:49;;;;;;;6.60;5.43;;;32.70;96.70;;;;;;5001739;28;20056;-71
2023/06/28 11:21:22;;;;;;;6.95;5.68;;;32.70;96.70;;;;;;5018576;28;20049;-71
2023/06/28 11:23:54;;;;;;;6.15;5.60;;;32.80;96.70;;;;;;5019387;28;20127;-71
2023/06/28 11:26:33;;;;;;;7.28;6.00;;;32.90;96.70;;;;;;5021956;28;20045;-71
2023/06/28 11:29:15;;;;;;;6.82;5.57;;;32.90;96.70;;;;;;5019553;28;20506;-71
2023/06/28 11:31:48;;;;;;;6.68;5.35;;;32.90;96.70;;;;;;5020809;28;20049;-71
2023/06/28 11:34:18;;;;;;;8.38;6.22;;;32.90;96.70;;;;;;5021747;28;20045;-71
2023/06/28 11:36:49;;;;;;;11.32;6.80;;;32.80;96.70;;;;;;5022273;28;20038;-70
2023/06/28 11:39:19;;;;;;;7.10;6.18;;;32.80;96.70;;;;;;5021990;28;20136;-71
2023/06/28 11:41:47;;;;;;;7.07;6.25;;;32.50;96.70;;;;;;5022356;28;20050;-70
2023/06/28 11:44:16;;;;;;;8.13;5.97;;;32.30;96.70;;;;;;4989762;28;20045;-70
2023/06/28 11:46:47;;;;;;;7.15;6.45;;;32.50;96.70;;;;;;5003294;28;20455;-71
2023/06/28 11:49:16;;;;;;;8.25;6.07;;;32.80;96.70;;;;;;5015661;28;20117;-72
2023/06/28 11:51:45;;;;;;;8.18;6.40;;;32.80;96.70;;;;;;5024451;28;20132;-70
2023/06/28 11:54:17;;;;;;;8.13;6.22;;;33.00;96.70;;;;;;5008611;28;20053;-71
2023/06/28 11:56:49;;;;;;;7.57;6.75;;;33.10;96.70;;;;;;5016695;28;20046;-70
2023/06/28 11:59:19;;;;;;;6.95;6.15;;;33.10;96.70;;;;;;5003579;28;20046;-71
2023/06/28 12:02:00;;;;;;;8.90;6.40;;;33.00;96.70;;;;;;5008128;28;20148;-71
2023/06/28 12:04:28;;;;;;;8.27;6.75;;;33.00;96.70;;;;;;5007228;28;20083;-71
2023/06/28 12:07:01;;;;;;;7.50;6.75;;;33.20;96.70;;;;;;5018819;28;20418;-69
2023/06/28 12:09:33;;;;;;;9.05;6.72;;;33.50;96.70;;;;;;5016196;28;20045;-69
2023/06/28 12:12:04;;;;;;;6.97;6.40;;;33.60;96.70;;;;;;4998651;28;20054;-70
2023/06/28 12:14:38;;;;;;;7.45;6.60;;;33.80;96.70;;;;;;4997505;28;20052;-71
2023/06/28 12:17:07;;;;;;;10.00;7.10;;;34.00;96.70;;;;;;4995578;28;20136;-70
2023/06/28 12:19:35;;;;;;;7.38;6.65;;;33.90;96.70;;;;;;4998227;28;20042;-70
2023/06/28 12:22:05;;;;;;;8.10;6.38;;;34.00;96.70;;;;;;5005167;28;20069;-70
2023/06/28 12:24:37;;;;;;;7.95;6.95;;;34.10;96.70;;;;;;5019454;28;20056;-70
2023/06/28 12:27:07;;;;;;;8.00;7.10;;;34.30;96.70;;;;;;4993157;28;20050;-71
2023/06/28 12:29:36;;;;;;;7.60;6.90;;;34.40;96.70;;;;;;5020005;28;20091;-70
2023/06/28 12:32:06;;;;;;;7.18;6.47;;;34.20;96.70;;;;;;5006050;28;20577;-72
2023/06/28 12:34:37;;;;;;;7.13;6.43;;;34.10;96.70;;;;;;5006756;28;20175;-71
2023/06/28 12:37:07;;;;;;;7.60;6.90;;;34.20;96.70;;;;;;5025304;28;20053;-71
2023/06/28 12:39:38;;;;;;;8.95;6.38;;;34.20;96.70;;;;;;5012535;28;20537;-71
2023/06/28 12:42:11;;;;;;;7.20;6.50;;;34.40;96.70;;;;;;5015857;28;20052;-71
2023/06/28 12:44:51;;;;;;;7.10;6.45;;;34.70;96.70;;;;;;5025306;28;20049;-71
2023/06/28 12:47:20;;;;;;;7.15;6.20;;;34.90;96.70;;;;;;5019053;28;20099;-69
2023/06/28 12:49:51;;;;;;;6.78;6.18;;;35.20;96.70;;;;;;5000090;28;20118;-69
2023/06/28 12:52:20;;;;;;;8.00;6.53;;;34.80;96.70;;;;;;5015734;28;20046;-69
2023/06/28 12:54:53;;;;;;;8.07;6.10;;;34.50;96.70;;;;;;4999228;28;20049;-70
2023/06/28 12:57:22;;;;;;;7.82;6.20;;;34.80;96.70;;;;;;5009003;28;20124;-70
2023/06/28 12:59:51;;;;;;;7.47;6.40;;;35.00;96.70;;;;;;5021164;28;20156;-70
2023/06/28 13:02:20;;;;;;;8.50;6.60;;;34.90;96.70;;;;;;5016630;28;20128;-69
2023/06/28 13:04:48;;;;;;;8.93;6.70;;;35.10;96.70;;;;;;5020691;28;20490;-69
2023/06/28 13:07:17;;;;;;;6.78;6.07;;;35.40;96.70;;;;;;5010193;28;20053;-70
2023/06/28 13:09:47;;;;;;;7.15;6.50;;;35.40;96.70;;;;;;4971802;28;20473;-69
2023/06/28 13:12:17;;;;;;;9.02;6.45;;;35.60;96.70;;;;;;5015858;28;20041;-70
2023/06/28 13:14:45;;;;;;;7.03;6.32;;;35.80;96.70;;;;;;5023118;28;20071;-69
2023/06/28 13:17:14;;;;;;;7.35;6.05;;;36.00;96.70;;;;;;4990182;28;20052;-69
2023/06/28 13:19:42;;;;;;;7.53;6.60;;;35.80;96.70;;;;;;5013346;28;20054;-70
2023/06/28 13:22:11;;;;;;;9.20;6.65;;;36.00;96.70;;;;;;5003579;28;20156;-70
2023/06/28 13:24:39;;;;;;;9.15;6.30;;;36.20;96.70;;;;;;5014172;28;20048;-70
2023/06/28 13:27:07;;;;;;;7.03;6.03;;;36.30;96.70;;;;;;5006480;28;20041;-70
2023/06/28 13:29:37;;;;;;;8.57;6.53;;;36.30;96.70;;;;;;5024034;28;20045;-70
2023/06/28 13:32:07;;;;;;;8.90;6.85;;;36.50;96.70;;;;;;5005351;28;20208;-70
2023/06/28 13:34:35;;;;;;;8.27;6.35;;;36.60;96.70;;;;;;5021979;28;20156;-70
2023/06/28 13:37:04;;;;;;;6.75;6.15;;;36.80;96.70;;;;;;4990110;28;20095;-70
2023/06/28 13:39:53;;;;;;;7.30;6.60;;;37.00;96.70;;;;;;5024015;28;20041;-70
2023/06/28 13:42:22;;;;;;;9.35;7.47;;;37.20;96.70;;;;;;5023164;28;20045;-70
2023/06/28 13:44:52;;;;;;;7.75;6.60;;;37.00;96.70;;;;;;5023736;28;20577;-70
2023/06/28 13:47:20;;;;;;;7.60;6.85;;;37.10;96.70;;;;;;5015140;28;20040;-70
2023/06/28 13:49:49;;;;;;;7.82;7.03;;;37.10;96.70;;;;;;5015112;28;20057;-70
2023/06/28 13:52:17;;;;;;;8.10;7.28;;;37.00;96.70;;;;;;5022440;28;20045;-70
2023/06/28 13:54:45;;;;;;;7.97;7.28;;;37.20;96.70;;;;;;5016037;28;20570;-70
2023/06/28 13:57:14;;;;;;;8.63;7.53;;;37.40;96.70;;;;;;5023695;28;20629;-70
2023/06/28 13:59:42;;;;;;;8.45;7.65;;;37.40;96.70;;;;;;5005560;28;20049;-70
2023/06/28 14:02:12;;;;;;;11.85;7.07;;;37.50;96.70;;;;;;5023518;28;20041;-70
2023/06/28 14:04:41;;;;;;;7.88;6.97;;;37.60;96.70;;;;;;5023098;28;20129;-70
2023/06/28 14:07:12;;;;;;;7.38;6.63;;;37.70;96.70;;;;;;5004142;28;20059;-70
2023/06/28 14:09:41;;;;;;;8.20;7.35;;;38.00;96.70;;;;;;5023060;28;20128;-70
2023/06/28 14:12:10;;;;;;;8.13;7.32;;;38.20;96.70;;;;;;5014174;28;20600;-70
2023/06/28 14:14:38;;;;;;;7.22;6.28;;;38.10;96.70;;;;;;5023053;28;20045;-69
2023/06/28 14:17:07;;;;;;;7.50;6.72;;;38.20;96.70;;;;;;5023269;28;20140;-70
2023/06/28 14:19:36;;;;;;;7.65;6.88;;;38.40;96.70;;;;;;5011568;28;20116;-70
2023/06/28 14:22:07;;;;;;;8.13;7.05;;;38.70;96.70;;;;;;5022611;28;20077;-70
2023/06/28 14:24:36;;;;;;;10.48;6.70;;;38.90;96.70;;;;;;5000434;28;20455;-70
2023/06/28 14:27:04;;;;;;;8.70;6.90;;;38.90;96.70;;;;;;5023156;28;20049;-70
2023/06/28 14:29:33;;;;;;;6.97;6.18;;;39.10;96.70;;;;;;5022780;28;20407;-70
2023/06/28 14:32:01;;;;;;;8.13;6.30;;;38.90;96.70;;;;;;5022716;28;20274;-70
2023/06/28 14:34:30;;;;;;;7.78;7.07;;;39.10;96.70;;;;;;5013339;28;20048;-70
2023/06/28 14:36:59;;;;;;;8.10;7.25;;;39.30;96.70;;;;;;5022261;28;21022;-70
2023/06/28 14:39:28;;;;;;;8.35;7.65;;;39.50;96.70;;;;;;5022637;28;20442;-70
2023/06/28 14:41:56;;;;;;;9.20;7.32;;;39.40;96.70;;;;;;5022748;28;20068;-70
2023/06/28 14:44:25;;;;;;;9.80;7.20;;;39.30;96.70;;;;;;5019752;28;20561;-70
2023/06/28 14:46:53;;;;;;;8.38;7.55;;;39.20;96.70;;;;;;5003342;28;20037;-70
2023/06/28 14:49:22;;;;;;;8.10;7.32;;;38.60;96.70;;;;;;4997149;28;20050;-70
2023/06/28 14:51:50;;;;;;;9.77;7.18;;;38.20;96.70;;;;;;5022458;28;20485;-70
2023/06/28 14:54:19;;;;;;;7.95;7.15;;;38.20;96.70;;;;;;5022625;28;20629;-70
2023/06/28 14:56:47;;;;;;;7.93;7.15;;;38.00;96.70;;;;;;5021086;28;20034;-70
2023/06/28 14:59:15;;;;;;;8.15;7.35;;;38.60;96.70;;;;;;5004948;28;20051;-70
2023/06/28 15:01:43;;;;;;;10.10;7.78;;;38.30;96.70;;;;;;5021069;28;20053;-70
2023/06/28 15:04:11;;;;;;;8.45;7.70;;;38.60;96.70;;;;;;5004158;28;20103;-70
2023/06/28 15:06:40;;;;;;;8.82;7.93;;;39.00;96.70;;;;;;5004940;28;20067;-70
2023/06/28 15:09:08;;;;;;;7.97;7.00;;;39.40;96.70;;;;;;5022789;28;20071;-70
2023/06/28 15:11:37;;;;;;;7.57;6.88;;;39.70;96.70;;;;;;5005074;28;20519;-70
2023/06/28 15:14:06;;;;;;;8.98;7.05;;;39.50;96.70;;;;;;5004105;28;20087;-71
2023/06/28 15:16:38;;;;;;;8.32;7.22;;;38.40;96.70;;;;;;4989141;28;20057;-70
2023/06/28 15:19:06;;;;;;;8.50;7.78;;;37.50;96.70;;;;;;4996787;28;20482;-70
2023/06/28 15:21:33;;;;;;;8.65;6.72;;;36.60;96.70;;;;;;4976337;28;20056;-70
2023/06/28 15:24:01;;;;;;;8.80;7.90;;;36.00;96.70;;;;;;4997267;28;20049;-70
2023/06/28 15:26:31;;;;;;;8.20;7.40;;;35.50;96.70;;;;;;5007550;28;20076;-70
2023/06/28 15:29:01;;;;;;;9.48;7.03;;;35.10;96.70;;;;;;5006288;28;20068;-70
2023/06/28 15:31:31;;;;;;;9.98;7.22;;;34.70;96.70;;;;;;5018102;28;20068;-70
2023/06/28 15:33:58;;;;;;;8.20;7.40;;;34.40;96.70;;;;;;5025684;28;20041;-70
2023/06/28 15:36:26;;;;;;;8.15;7.05;;;34.10;96.70;;;;;;5008342;28;20083;-70
2023/06/28 15:38:54;;;;;;;9.02;7.35;;;33.80;96.70;;;;;;5008626;28;20065;-70
2023/06/28 15:41:41;;;;;;;10.32;7.40;;;33.50;96.70;;;;;;4969272;28;20427;-70